Ontario, OR

2:12 AM MST on December 27, 2014 (GMT -0700)
Iowa Ave and Highway 52 | Change Station
CLOSE
Current Station
Personal Weather Station
Location: Payette, ID
Elevation: 2300 ft
Nearby Weather Stations

Elev 2300 ft 44.06 °N, 116.91 °W | Updated 13 minutes ago

Clear
Clear
22.3 °F
Feels Like 22 °F
N
2.2
Wind Variable Wind from ENE

Today
High -- | Low -- °F
--% Chance of Precip.
Yesterday
High -- | Low -- °F
Precip. -- in
8:22 AM 5:16 PM
Waxing Crescent, 34% visible
Pressure 30.43 in
Visibility 10.0 miles
Clouds Clear
Windchill 22 °F
Dew Point 20 °F
Humidity 91%
Rainfall 0.00 in
Snow Depth Not available.
UV 0 out of 12
Pollen .10 out of 12
Air Quality Not available.
Flu Activity Not available.
METAR KONO 270853Z AUTO 21003KT 10SM CLR M04/M07 A3036 RMK AO2 SLP302 T10391067 53002

More Conditions Fewer Conditions

Pressure 30.43 in
Visibility 10.0 miles
Clouds Clear
Windchill 22 °F
Dew Point 20 °F
Humidity 91%
Rainfall 0.00 in
Snow Depth Not available.
UV 0 out of 12
Pollen .10 out of 12
Air Quality Not available.
Flu Activity Not available.
METAR KONO 270853Z AUTO 21003KT 10SM CLR M04/M07 A3036 RMK AO2 SLP302 T10391067 53002

More Conditions Fewer Conditions

10-Day Weather Forecast

Almanac

Astronomy

Dec. 27, 2014 Rise Set
Actual Time
Civil Twilight
Nautical Twilight
Astronomical Twilight
Moon
Length of Visible Light
Length of Day
Tomorrow will be .
, % of the Moon is Illuminated

Today's Extremes

State Highs State Lows

Community

WunderPhotos

Upload Photos

1,780,869 photos uploaded!

WunderBlogs® & News

Nearby

Air Quality

  Air Quality AQ Index Pollutant
Not available.

Snow Depth

Station Depth Elevation

Earthquake Activity

City Distance Mag. Time & Date
Minimum magnitude displayed is 2.5.

Coastal Water Temperatures

Place Temperature

Nearby Weather Stations